WEATHER DATA

TODAY
Time Temp. Dewp. Hum. Wind dir Wind speed Wind gust Bar. 1h Prec. 24h Prec.
00:20 5.8 0.6 69 188 1.1 1.9 1024.1 0.0000 0.0000
00:30 5.6 0.6 70 186 1.1 2.2 1024.1 0.0000 0.0000
00:39 5.4 0.4 70 187 1.1 2.5 1024.2 0.0000 0.0000
00:49 5.3 0.5 71 176 1.1 1.9 1024.2 0.0000 0.0000
01:00 5.2 0.4 71 175 1.1 1.9 1024.2 0.0000 0.0000
01:09 5.1 0.5 72 181 1.1 2.2 1024.4 0.0000 0.0000
01:19 5 0.4 72 196 1.1 1.9 1024.5 0.0000 0.0000
01:30 4.9 0.3 72 184 1.1 2.5 1024.5 0.0000 0.0000
01:40 4.8 0.4 73 195 1.1 2.2 1024.4 0.0000 0.0000
01:49 4.7 0.3 73 193 1.1 1.9 1024.5 0.0000 0.0000
02:00 4.7 0.3 73 194 1.1 1.9 1024.5 0.0000 0.0000
02:10 4.6 0.2 73 197 0.8 1.9 1024.7 0.0000 0.0000
02:20 4.5 0.1 73 186 1.1 1.9 1024.4 0.0000 0.0000
02:29 4.4 0 73 178 1.1 2.2 1024.5 0.0000 0.0000
02:40 4.3 0.1 74 187 1.1 2.2 1024.5 0.0000 0.0000
02:50 4.2 0 74 183 1.1 2.5 1024.6 0.0000 0.0000
03:00 4 -0.2 74 194 1.1 2.2 1024.7 0.0000 0.0000
03:10 3.9 -0.3 74 197 1.1 2.2 1024.4 0.0000 0.0000
03:20 3.8 -0.2 75 192 1.1 2.2 1024.4 0.0000 0.0000
03:30 3.6 -0.4 75 185 1.1 2.5 1024.5 0.0000 0.0000
03:40 3.6 -0.2 76 183 1.4 2.8 1024.5 0.0000 0.0000
03:50 3.5 -0.3 76 183 1.4 3.3 1024.4 0.0000 0.0000
04:02 3.4 -0.1 78 194 1.4 2.8 1024.5 0.0000 0.0000
04:11 3.3 -0.3 77 183 1.4 2.5 1024.5 0.0000 0.0000
04:21 3.3 -0.1 78 187 1.4 2.5 1024.4 0.0000 0.0000
04:32 3.2 -0.2 78 190 1.4 2.5 1024.5 0.0000 0.0000
04:42 3.1 -0.3 78 198 1.1 2.2 1024.6 0.0000 0.0000
04:51 3.1 -0.3 78 183 1.1 2.2 1024.5 0.0000 0.0000
05:02 3 -0.4 78 199 1.1 2.5 1024.8 0.0000 0.0000
05:12 2.9 -0.5 78 205 1.1 2.2 1024.8 0.0000 0.0000
05:21 2.9 -0.5 78 195 1.1 2.5 1024.6 0.0000 0.0000
05:31 2.8 -0.6 78 207 1.4 2.5 1024.8 0.0000 0.0000
05:42 2.7 -0.5 79 181 1.4 3.3 1024.9 0.0000 0.0000
05:52 2.6 -0.6 79 188 1.4 2.2 1024.7 0.0000 0.0000
06:01 2.6 -0.6 79 171 1.1 2.5 1024.8 0.0000 0.0000
06:12 2.5 -0.5 80 187 1.4 2.8 1024.8 0.0000 0.0000
06:22 2.4 -0.6 80 183 1.4 2.5 1024.8 0.0000 0.0000
06:32 2.4 -0.6 80 193 1.4 2.5 1024.7 0.0000 0.0000
06:41 2.4 -0.6 80 185 1.4 2.8 1024.7 0.0000 0.0000
06:52 2.4 -0.6 80 188 1.4 2.5 1024.8 0.0000 0.0000
07:02 2.4 -0.5 81 190 1.4 2.5 1024.9 0.0000 0.0000
07:12 2.4 -0.5 81 191 1.1 2.5 1025 0.0000 0.0000
07:22 2.3 -0.5 81 177 1.4 3.6 1024.9 0.0000 0.0000
07:32 2.4 -0.5 81 189 1.1 2.5 1025.2 0.0000 0.0000
07:52 2.4 -0.5 81 188 1.4 2.8 1025.4 0.0000 0.0000
08:02 2.4 -0.5 81 200 1.4 2.5 1025.5 0.0000 0.0000
08:12 2.4 -0.5 81 193 1.4 2.8 1025.5 0.0000 0.0000
08:22 2.6 -0.3 81 185 1.4 2.8 1025.5 0.0000 0.0000
08:32 2.8 -0.1 81 198 1.4 2.5 1025.7 0.0000 0.0000
08:42 3 0.1 81 202 1.1 2.2 1025.6 0.0000 0.0000
08:52 3.3 0.2 80 195 1.4 3.3 1025.7 0.0000 0.0000
09:02 3.5 0.4 80 173 1.4 2.8 1025.7 0.0000 0.0000
09:13 3.8 0.5 79 168 1.4 3.3 1025.8 0.0000 0.0000
09:22 4 0.7 79 186 1.1 2.5 1025.7 0.0000 0.0000
09:32 4.3 1 79 205 1.1 2.8 1025.9 0.0000 0.0000
09:43 4.7 1.2 78 168 1.1 2.2 1025.8 0.0000 0.0000
09:52 4.9 1.2 77 190 1.1 2.2 1025.9 0.0000 0.0000
10:02 5.2 1.5 77 184 1.1 2.2 1026.1 0.0000 0.0000
10:13 5.4 1.5 76 164 1.1 2.5 1026.1 0.0000 0.0000
10:23 5.7 1.6 75 167 0.8 2.8 1026.1 0.0000 0.0000
10:33 6 1.7 74 168 1.1 2.5 1026.3 0.0000 0.0000
10:42 6.3 1.8 73 157 1.1 2.5 1026.3 0.0000 0.0000
10:53 6.6 1.9 72 164 0.8 2.2 1026.3 0.0000 0.0000
11:03 6.9 2.2 72 182 0.8 2.5 1026.1 0.0000 0.0000
11:13 7.1 2.2 71 195 0.8 1.4 1026.3 0.0000 0.0000
11:23 7.4 2.5 71 169 1.1 2.5 1026.4 0.0000 0.0000
11:33 7.7 2.6 70 171 1.1 2.8 1026.5 0.0000 0.0000
11:43 8 2.7 69 181 1.1 1.9 1026.4 0.0000 0.0000
11:53 8.3 2.5 67 167 0.8 1.4 1026.3 0.0000 0.0000
12:03 8.7 2.7 66 162 1.1 2.5 1026.3 0.0000 0.0000
12:13 9 2.8 65 180 1.1 2.2 1026.2 0.0000 0.0000
12:23 9.4 3.2 65 152 1.1 2.2 1026 0.0000 0.0000
12:34 9.7 3.2 64 204 0.8 1.9 1026.1 0.0000 0.0000
12:43 10 3.5 64 214 1.1 2.5 1025.9 0.0000 0.0000
12:53 10.3 3.6 63 198 1.1 2.8 1025.7 0.0000 0.0000
13:03 10.7 4.4 65 198 1.1 3.3 1025.5 0.0000 0.0000
13:14 11 4.5 64 30 1.4 3.9 1025.5 0.0000 0.0000
13:23 11.2 4.7 64 336 1.4 3.6 1025.5 0.0000 0.0000
13:33 11.4 4.8 64 198 1.1 2.2 1025.4 0.0000 0.0000
13:44 11.6 4.8 63 198 1.1 3.6 1025.1 0.0000 0.0000
13:54 11.9 5.1 63 135 1.4 3.3 1025.1 0.0000 0.0000
14:03 12.1 5 62 225 1.1 3.9 1024.9 0.0000 0.0000
14:13 12.3 5 61 171 1.4 3.3 1025 0.0000 0.0000
14:24 12.5 5.2 61 184 1.1 2.5 1024.9 0.0000 0.0000
14:34 12.7 5.4 61 170 1.1 2.8 1024.8 0.0000 0.0000
14:43 12.8 5.5 61 278 1.1 3.6 1024.9 0.0000 0.0000
14:54 12.9 5.3 60 166 1.1 2.8 1024.8 0.0000 0.0000
15:04 13.1 5.5 60 158 1.1 2.8 1024.7 0.0000 0.0000
15:14 13.3 5.5 59 170 1.1 2.5 1024.6 0.0000 0.0000
15:24 13.5 5.7 59 329 1.4 3.9 1024.7 0.0000 0.0000
15:34 13.6 5.5 58 341 1.1 3.6 1024.5 0.0000 0.0000
15:44 13.6 5.5 58 332 1.1 2.5 1024.5 0.0000 0.0000
15:54 13.6 5.5 58 294 1.4 2.8 1024.2 0.0000 0.0000
16:04 13.6 5.3 57 315 1.4 4.4 1024.4 0.0000 0.0000
16:14 13.6 5.5 58 256 1.1 2.5 1024.4 0.0000 0.0000
16:24 13.6 5.7 59 315 1.1 2.5 1024.4 0.0000 0.0000
16:34 13.5 5.4 58 320 1.1 3.3 1024.4 0.0000 0.0000
16:44 13.5 5.4 58 330 1.1 2.8 1024.3 0.0000 0.0000
16:54 13.4 5.6 59 341 1.1 2.5 1024.3 0.0000 0.0000
17:04 13.3 5.5 59 341 1.4 2.5 1024.3 0.0000 0.0000
17:15 13.2 5.6 60 327 1.1 1.9 1024.4 0.0000 0.0000
17:24 13 5.4 60 315 1.1 1.9 1024.5 0.0000 0.0000
17:34 12.9 5.6 61 318 0.8 1.9 1024.3 0.0000 0.0000

DAY STATISTIC

2019-02-19
TEMPERATURE
AVERAGE
6.8
HIGH
13.6
15:34
LOW
2.3
07:22
PRESSURE
AVERAGE
1025.0
HIGH
1026.5
11:33
LOW
1024.1
00:20
DEWPOINT
AVERAGE
1.8
HIGH
5.7
15:24
LOW
-0.6
05:31
HUMIDITY
AVERAGE
71
HIGH
81
07:02
LOW
57
16:04
WIND SPEED
AVERAGE
1.2
HIGH
1.4
03:40
WIND GUST
AVERAGE
2.6
HIGH
4.4
16:04
WIND DIRECTION
PREVAILING
S
75.7%
N
2.9
NE
1.0
E
0.0
SE
2.9
S
75.7
SW
4.9
W
1.9
NW
10.7
PRECIPITATION
RAIN HOUR
0.0
RAIN DAY
0.0
TEMPERATURE (°C)
LOW
2.3
HIGH
13.6
AVERAGE
6.8
PRESSURE (hpa)
LOW
1024.1
HIGH
1026.5
AVERAGE
1025.0
DEVICE